createdAt,value
2019-03-02T00:00:58.116Z,75.43
2019-03-02T00:03:27.250Z,62.30
2019-03-02T00:05:56.944Z,62.97
2019-03-02T00:08:27.168Z,66.40
2019-03-02T00:10:56.222Z,69.63
2019-03-02T00:13:26.767Z,69.03
2019-03-02T00:15:56.193Z,67.23
2019-03-02T00:18:29.126Z,67.47
2019-03-02T00:20:57.736Z,68.50
2019-03-02T00:23:26.638Z,78.13
2019-03-02T00:25:55.869Z,72.60
2019-03-02T00:28:26.457Z,69.63
2019-03-02T00:30:57.814Z,66.23
2019-03-02T00:33:26.357Z,68.83
2019-03-02T00:35:55.322Z,65.07
2019-03-02T00:38:25.074Z,67.47
2019-03-02T00:40:54.401Z,65.70
2019-03-02T00:43:26.816Z,66.33
2019-03-02T00:45:54.140Z,66.33
2019-03-02T00:48:23.193Z,66.57
2019-03-02T00:50:52.165Z,67.67
2019-03-02T00:53:39.912Z,66.93
2019-03-02T00:59:35.791Z,68.47
2019-03-02T01:02:24.041Z,71.87
2019-03-02T01:05:11.804Z,67.70
2019-03-02T01:11:06.448Z,62.10
2019-03-02T01:13:56.842Z,69.43
2019-03-02T01:16:43.624Z,70.27
2019-03-02T01:22:38.275Z,68.33
2019-03-02T01:28:33.044Z,64.27
2019-03-02T01:34:14.429Z,69.40
2019-03-02T01:39:55.350Z,64.10
2019-03-02T04:14:23.302Z,55.30
2019-03-02T04:16:55.669Z,54.47
2019-03-02T04:19:34.049Z,55.67
2019-03-02T04:22:06.425Z,59.07
2019-03-02T04:24:39.795Z,60.43
2019-03-02T04:27:06.265Z,60.13
2019-03-02T04:29:35.264Z,55.80
2019-03-02T04:32:03.800Z,52.17
2019-03-02T04:34:32.962Z,53.57
2019-03-02T04:37:04.803Z,57.90
2019-03-02T04:39:33.855Z,52.77
2019-03-02T04:42:03.546Z,45.80
2019-03-02T04:44:32.877Z,54.73
2019-03-02T04:47:01.854Z,52.70
2019-03-02T04:49:30.784Z,48.73
2019-03-02T04:51:59.772Z,53.80
2019-03-02T04:54:28.886Z,49.40
2019-03-02T04:56:58.966Z,51.87
2019-03-02T04:59:28.544Z,56.13
2019-03-02T05:01:57.588Z,50.30
2019-03-02T05:04:28.706Z,52.10
2019-03-02T05:06:57.796Z,57.80
2019-03-02T05:09:26.716Z,57.63
2019-03-02T05:11:55.656Z,50.27
2019-03-02T05:14:24.691Z,53.17
2019-03-02T05:16:53.632Z,51.80
2019-03-02T05:19:25.732Z,55.83
2019-03-02T05:21:53.477Z,55.67
2019-03-02T05:24:22.528Z,54.43
2019-03-02T05:26:53.525Z,60.30
2019-03-02T05:29:22.256Z,59.47
2019-03-02T05:31:51.197Z,56.37
2019-03-02T05:34:20.250Z,58.67
2019-03-02T05:36:49.280Z,54.87
2019-03-02T05:39:18.242Z,58.07
2019-03-02T05:41:47.179Z,57.33
2019-03-02T05:44:16.108Z,61.73
2019-03-02T05:46:45.076Z,56.50
2019-03-02T05:49:18.284Z,65.93
2019-03-02T05:51:46.408Z,58.40
2019-03-02T05:54:15.391Z,58.80
2019-03-02T05:56:44.453Z,53.07
2019-03-02T05:59:13.426Z,63.67
2019-03-02T06:01:42.478Z,56.00
2019-03-02T06:04:11.448Z,60.57
2019-03-02T06:06:40.360Z,59.57
2019-03-02T06:09:13.769Z,63.47
2019-03-02T06:11:41.825Z,57.17
2019-03-02T06:14:10.766Z,58.00
2019-03-02T06:16:39.596Z,58.27
2019-03-02T06:19:08.602Z,59.33
2019-03-02T06:21:37.517Z,69.03
2019-03-02T06:24:06.568Z,61.53
2019-03-02T06:26:36.741Z,70.03
2019-03-02T06:29:06.044Z,75.43
2019-03-02T06:31:35.049Z,67.80
2019-03-02T06:34:03.557Z,65.50
2019-03-02T06:36:32.133Z,61.23
2019-03-02T06:39:03.937Z,71.30
2019-03-02T06:41:33.242Z,60.73
2019-03-02T06:44:02.889Z,64.87
2019-03-02T06:46:32.080Z,68.00
2019-03-02T06:49:01.347Z,60.30
2019-03-02T06:51:30.265Z,68.80
2019-03-02T06:53:59.285Z,59.63
2019-03-02T06:56:28.195Z,55.80
2019-03-02T06:58:57.107Z,55.67
2019-03-02T07:01:26.150Z,55.20
2019-03-02T07:03:55.166Z,61.73
2019-03-02T07:06:24.124Z,49.10
2019-03-02T07:08:53.180Z,57.10
2019-03-02T07:11:22.302Z,58.20
2019-03-02T07:13:53.565Z,64.30
2019-03-02T07:16:22.191Z,63.03
2019-03-02T07:19:16.716Z,64.50
2019-03-02T07:21:46.052Z,58.03
2019-03-02T07:24:14.964Z,67.67
2019-03-02T07:26:43.925Z,61.23
2019-03-02T07:29:13.865Z,71.93
2019-03-02T07:31:43.672Z,56.20
2019-03-02T07:34:12.709Z,62.90
2019-03-02T07:36:41.713Z,58.00
2019-03-02T07:39:10.685Z,65.37
2019-03-02T07:41:39.783Z,65.33
2019-03-02T07:44:08.797Z,60.60
2019-03-02T07:46:38.052Z,56.00
2019-03-02T07:49:09.182Z,58.63
2019-03-02T07:51:41.210Z,48.57
2019-03-02T07:54:08.424Z,59.07
2019-03-02T07:56:37.315Z,56.10
2019-03-02T07:59:06.293Z,59.03
2019-03-02T08:01:35.313Z,53.50
2019-03-02T08:04:04.301Z,55.60
2019-03-02T08:06:33.333Z,51.70
2019-03-02T08:09:02.380Z,63.47
2019-03-02T08:11:31.378Z,51.93
2019-03-02T08:14:00.367Z,60.47
2019-03-02T08:16:29.334Z,59.53
2019-03-02T08:19:00.557Z,55.07
2019-03-02T08:21:32.348Z,55.00
2019-03-02T08:23:59.970Z,42.47
2019-03-02T08:26:28.953Z,50.07
2019-03-02T08:28:57.992Z,53.63
2019-03-02T08:31:27.069Z,48.83
2019-03-02T08:33:58.538Z,51.30
2019-03-02T08:36:27.671Z,43.07
2019-03-02T08:38:56.670Z,46.90
2019-03-02T08:41:25.741Z,36.00
2019-03-02T08:43:54.753Z,39.13
2019-03-02T08:46:23.732Z,47.10
2019-03-02T08:48:52.396Z,45.70
2019-03-02T08:51:21.667Z,44.47
2019-03-02T08:53:50.751Z,40.33
2019-03-02T08:56:19.720Z,33.20
2019-03-02T08:58:49.845Z,36.63
2019-03-02T09:01:19.709Z,46.60
2019-03-02T09:03:48.836Z,48.00
2019-03-02T09:06:19.100Z,44.23
2019-03-02T09:08:48.569Z,44.13
2019-03-02T09:11:17.541Z,44.67
2019-03-02T09:13:46.528Z,40.23
2019-03-02T09:16:15.545Z,38.00
2019-03-02T09:18:45.886Z,50.30
2019-03-02T09:21:14.627Z,39.30
2019-03-02T09:23:43.604Z,41.20
2019-03-02T09:26:14.781Z,41.93
2019-03-02T09:28:43.723Z,42.00
2019-03-02T09:31:12.713Z,44.90
2019-03-02T09:33:41.662Z,41.40
2019-03-02T09:36:12.477Z,36.30
2019-03-02T09:38:41.493Z,40.80
2019-03-02T09:41:11.674Z,42.77
2019-03-02T09:43:40.961Z,39.43
2019-03-02T09:46:09.933Z,41.10
2019-03-02T09:48:38.896Z,41.30
2019-03-02T09:51:10.581Z,45.33
2019-03-02T09:53:39.763Z,39.73
2019-03-02T09:56:08.983Z,36.90
2019-03-02T09:58:38.119Z,42.07
2019-03-02T10:01:07.418Z,39.43
2019-03-02T10:03:36.461Z,33.87
2019-03-02T10:06:05.587Z,39.00
2019-03-02T10:08:34.580Z,32.90
2019-03-02T10:11:06.207Z,37.97
2019-03-02T10:13:34.348Z,37.53
2019-03-02T10:19:29.788Z,30.97
2019-03-02T10:22:19.752Z,34.40
2019-03-02T10:30:55.021Z,37.90
2019-03-02T10:33:42.721Z,40.07
2019-03-02T10:39:24.218Z,39.20
2019-03-02T17:59:13.648Z,34.40
2019-03-02T18:01:53.858Z,40.73
2019-03-02T18:04:35.377Z,33.23
2019-03-02T18:07:20.468Z,39.93
2019-03-02T22:52:26.648Z,25.80
2019-03-02T22:55:06.836Z,27.70
2019-03-02T22:57:48.541Z,23.90
2019-03-02T23:00:29.253Z,26.20
